Laurel Hill, North Carolina
Current Conditions -  °F | °C
As of 9:52 PM on Thursday 18 Dec 2014 (Local Time) from KMEB Reporting Station
Clear Clear  
Wind Chill: 36°   Ceiling: Unl
Heat Index: 36°   Visibility: 9mi
Dew Point: 32°   Wind: 0mph
Humidity: 86%   Direction: NA
Pressure: 30.12"   Gusts: NA
Location:  34.81°N, 79.55°W
Report Text: KMEB 190252Z AUTO 00000KT 9SM CLR 02/00 A3012 RMK AO2 SLP201 T00220000 53007
Loading
Personal Weather Stations






























Interactive Weather Map New forecast layout! Learn more

10-Day Weather Forecast

Advertisements
Track Severe Weather on mobile